createdAt,value
2022-12-06T00:00:46.454Z,8.20
2022-12-06T00:01:48.059Z,8.09
2022-12-06T00:02:49.684Z,8.00
2022-12-06T00:03:54.033Z,7.90
2022-12-06T00:04:55.545Z,7.86
2022-12-06T00:06:01.674Z,7.87
2022-12-06T00:07:03.224Z,7.89
2022-12-06T00:08:05.169Z,7.91
2022-12-06T00:09:07.128Z,7.91
2022-12-06T00:10:08.981Z,7.91
2022-12-06T00:11:14.398Z,7.93
2022-12-06T00:12:15.935Z,7.89
2022-12-06T00:13:17.514Z,7.87
2022-12-06T00:14:19.649Z,7.84
2022-12-06T00:15:21.179Z,7.72
2022-12-06T00:16:23.327Z,7.64
2022-12-06T00:17:24.926Z,7.47
2022-12-06T00:18:26.472Z,7.36
2022-12-06T00:19:28.115Z,7.27
2022-12-06T00:20:29.804Z,7.22
2022-12-06T00:21:36.336Z,7.18
2022-12-06T00:22:43.331Z,7.13
2022-12-06T00:23:47.944Z,7.05
2022-12-06T00:24:49.460Z,7.06
2022-12-06T00:25:51.037Z,7.09
2022-12-06T00:26:52.598Z,7.08
2022-12-06T00:27:54.702Z,7.07
2022-12-06T00:28:59.412Z,7.10
2022-12-06T00:30:01.255Z,7.11
2022-12-06T00:31:05.486Z,7.15
2022-12-06T00:32:07.063Z,7.17
2022-12-06T00:33:08.693Z,7.19
2022-12-06T00:34:10.352Z,7.18
2022-12-06T00:35:11.870Z,7.17
2022-12-06T00:36:18.736Z,7.17
2022-12-06T00:37:20.274Z,7.12
2022-12-06T00:38:21.790Z,7.10
2022-12-06T00:39:23.322Z,7.10
2022-12-06T00:40:24.960Z,7.09
2022-12-06T00:41:27.014Z,7.13
2022-12-06T00:42:28.543Z,7.23
2022-12-06T00:43:31.058Z,7.25
2022-12-06T00:44:32.610Z,7.25
2022-12-06T00:45:34.220Z,7.35
2022-12-06T00:46:35.964Z,7.40
2022-12-06T00:47:37.487Z,7.49
2022-12-06T00:48:38.995Z,7.58
2022-12-06T00:49:40.553Z,7.65
2022-12-06T00:50:42.079Z,7.73
2022-12-06T00:51:43.673Z,7.81
2022-12-06T00:52:45.205Z,7.88
2022-12-06T00:53:47.159Z,7.95
2022-12-06T00:54:48.667Z,8.01
2022-12-06T00:55:50.998Z,8.07
2022-12-06T00:56:52.606Z,8.11
2022-12-06T00:57:54.263Z,8.17
2022-12-06T00:58:55.878Z,8.22
2022-12-06T00:59:57.647Z,8.26
2022-12-06T01:01:20.702Z,8.30
2022-12-06T01:02:22.277Z,8.38
2022-12-06T01:03:23.846Z,8.40
2022-12-06T01:04:25.430Z,8.43
2022-12-06T01:05:27.377Z,8.45
2022-12-06T01:06:31.715Z,8.50
2022-12-06T01:07:33.309Z,8.54
2022-12-06T01:08:35.707Z,8.49
2022-12-06T01:09:37.275Z,8.48
2022-12-06T01:10:39.477Z,8.48
2022-12-06T01:11:41.158Z,8.53
2022-12-06T01:12:43.003Z,8.58
2022-12-06T01:13:44.572Z,8.60
2022-12-06T01:14:46.190Z,8.59
2022-12-06T01:15:47.803Z,8.51
2022-12-06T01:16:49.379Z,8.45
2022-12-06T01:17:50.979Z,8.46
2022-12-06T01:18:55.194Z,8.47
2022-12-06T01:19:56.884Z,8.42
2022-12-06T01:21:09.842Z,8.43
2022-12-06T01:22:11.452Z,8.44
2022-12-06T01:23:14.599Z,8.44
2022-12-06T01:24:16.149Z,8.46
2022-12-06T01:25:17.885Z,8.47
2022-12-06T01:26:23.008Z,8.46
2022-12-06T01:27:24.729Z,8.44
2022-12-06T01:28:26.345Z,8.43
2022-12-06T01:29:27.896Z,8.41
2022-12-06T01:30:29.630Z,8.44
2022-12-06T01:31:37.662Z,8.47
2022-12-06T01:32:40.391Z,8.44
2022-12-06T01:33:42.870Z,8.34
2022-12-06T01:34:45.296Z,8.30
2022-12-06T01:35:46.867Z,8.25
2022-12-06T01:36:49.731Z,8.25
2022-12-06T01:37:51.251Z,8.26
2022-12-06T01:38:55.857Z,8.29
2022-12-06T01:39:57.644Z,8.28
2022-12-06T01:40:59.809Z,8.26
2022-12-06T01:42:01.362Z,8.25
2022-12-06T01:43:02.883Z,8.18
2022-12-06T01:44:05.167Z,8.17
2022-12-06T01:45:07.406Z,8.17
2022-12-06T01:46:20.318Z,8.17
2022-12-06T01:47:38.138Z,8.16
2022-12-06T01:48:41.515Z,8.18
2022-12-06T01:49:47.799Z,8.17
2022-12-06T01:50:49.557Z,8.21
2022-12-06T01:52:01.768Z,8.24
2022-12-06T01:53:08.601Z,8.28
2022-12-06T01:54:13.064Z,8.29
2022-12-06T01:55:16.711Z,8.33
2022-12-06T01:56:19.290Z,8.37
2022-12-06T01:57:21.117Z,8.40
2022-12-06T01:58:27.511Z,8.44
2022-12-06T01:59:29.714Z,8.48
2022-12-06T02:00:31.257Z,8.50
2022-12-06T02:01:34.186Z,8.54
2022-12-06T02:02:35.883Z,8.54
2022-12-06T02:03:37.871Z,8.53
2022-12-06T02:04:40.163Z,8.52
2022-12-06T02:05:42.292Z,8.56
2022-12-06T02:06:44.390Z,8.57
2022-12-06T02:07:46.657Z,8.61
2022-12-06T02:08:49.569Z,8.61
2022-12-06T02:09:51.958Z,8.62
2022-12-06T02:10:54.355Z,8.62
2022-12-06T02:11:55.954Z,8.59
2022-12-06T02:12:59.220Z,8.54
2022-12-06T02:14:02.750Z,8.50
2022-12-06T02:15:04.933Z,8.48
2022-12-06T02:16:23.616Z,8.44
2022-12-06T02:17:43.418Z,8.43
2022-12-06T02:19:05.719Z,8.43
2022-12-06T02:20:19.185Z,8.45
2022-12-06T02:21:40.405Z,8.48
2022-12-06T02:23:19.664Z,8.49
2022-12-06T02:24:21.200Z,8.54
2022-12-06T02:25:43.447Z,8.59
2022-12-06T02:26:50.031Z,8.63
2022-12-06T02:28:13.525Z,8.60
2022-12-06T02:29:43.754Z,8.51
2022-12-06T02:30:47.752Z,8.48
2022-12-06T02:31:55.043Z,8.43
2022-12-06T02:32:59.464Z,8.41
2022-12-06T02:34:07.067Z,8.43
2022-12-06T02:35:12.517Z,8.45
2022-12-06T02:36:37.694Z,8.45
2022-12-06T02:37:57.095Z,8.44
2022-12-06T02:39:16.113Z,8.43
2022-12-06T02:40:26.149Z,8.42
2022-12-06T02:41:32.203Z,8.45
2022-12-06T02:42:46.038Z,8.48
2022-12-06T02:43:54.434Z,8.49
2022-12-06T02:45:01.320Z,8.51
2022-12-06T02:46:04.882Z,8.46
2022-12-06T02:47:10.765Z,8.43
2022-12-06T02:48:14.548Z,8.45
2022-12-06T02:49:17.971Z,8.43
2022-12-06T02:50:26.877Z,8.45
2022-12-06T02:51:31.049Z,8.40
2022-12-06T02:52:38.176Z,8.43
2022-12-06T02:53:44.966Z,8.44
2022-12-06T02:54:48.413Z,8.37
2022-12-06T02:55:50.793Z,8.35
2022-12-06T02:56:52.604Z,8.31
2022-12-06T02:57:56.941Z,8.28
2022-12-06T02:58:58.916Z,8.24
2022-12-06T03:00:01.180Z,8.18
2022-12-06T03:01:06.871Z,8.11
2022-12-06T03:02:11.421Z,8.00
2022-12-06T03:03:50.302Z,7.91
2022-12-06T03:04:57.785Z,7.88
2022-12-06T03:06:02.346Z,7.72
2022-12-06T03:07:25.279Z,7.54
2022-12-06T03:09:04.493Z,7.37
2022-12-06T03:10:29.973Z,7.28
2022-12-06T03:11:44.886Z,7.26
2022-12-06T03:13:08.473Z,7.27
2022-12-06T03:14:22.634Z,7.28
2022-12-06T03:15:27.125Z,7.32
2022-12-06T03:16:44.062Z,7.33
2022-12-06T03:17:56.025Z,7.34
2022-12-06T03:19:20.652Z,7.32
2022-12-06T03:20:31.921Z,7.28
2022-12-06T03:21:45.350Z,7.29
2022-12-06T03:22:53.577Z,7.28
2022-12-06T03:23:55.860Z,7.35
2022-12-06T03:24:58.596Z,7.35
2022-12-06T03:26:03.811Z,7.35
2022-12-06T03:27:10.376Z,7.33
2022-12-06T03:28:15.457Z,7.31
2022-12-06T03:29:20.799Z,7.31
2022-12-06T03:30:22.551Z,7.33
2022-12-06T03:31:25.307Z,7.32
2022-12-06T03:32:32.641Z,7.31
2022-12-06T03:33:38.137Z,7.27
2022-12-06T03:34:43.723Z,7.22
2022-12-06T03:35:47.364Z,7.22
2022-12-06T03:36:51.524Z,7.24
2022-12-06T03:38:03.221Z,7.25
2022-12-06T03:39:07.938Z,7.25
2022-12-06T03:40:25.625Z,7.24
2022-12-06T03:41:31.217Z,7.23
2022-12-06T03:42:33.724Z,7.23
2022-12-06T03:43:35.344Z,7.32
2022-12-06T03:44:37.776Z,7.35
2022-12-06T03:45:46.728Z,7.40
2022-12-06T03:46:53.054Z,7.41
2022-12-06T03:48:29.829Z,7.33
2022-12-06T03:49:41.003Z,7.37
2022-12-06T03:50:54.208Z,7.41
2022-12-06T03:51:59.320Z,7.43
2022-12-06T03:53:01.604Z,7.47
2022-12-06T03:54:05.458Z,7.48
2022-12-06T03:55:07.656Z,7.57
2022-12-06T03:56:09.192Z,7.65
2022-12-06T03:57:10.977Z,7.71
2022-12-06T03:58:12.938Z,7.78
2022-12-06T03:59:14.485Z,7.87
2022-12-06T04:00:16.719Z,7.93
2022-12-06T04:01:18.617Z,7.93
2022-12-06T04:02:20.196Z,7.90
2022-12-06T04:03:21.811Z,7.89
2022-12-06T04:04:24.720Z,7.92
2022-12-06T04:05:26.255Z,7.87
2022-12-06T04:06:27.812Z,7.83
2022-12-06T04:07:29.466Z,7.84
2022-12-06T04:08:31.294Z,7.84
2022-12-06T04:09:51.403Z,7.87
2022-12-06T04:10:52.907Z,7.85
2022-12-06T04:11:54.482Z,7.83
2022-12-06T04:13:02.222Z,7.83
2022-12-06T04:14:03.811Z,7.69
2022-12-06T04:15:06.748Z,7.62
2022-12-06T04:16:29.066Z,7.51
2022-12-06T04:17:49.185Z,7.34
2022-12-06T04:18:50.687Z,7.27
2022-12-06T04:19:52.383Z,7.25
2022-12-06T04:21:18.613Z,7.15
2022-12-06T04:22:38.385Z,7.14
2022-12-06T04:23:41.706Z,7.03
2022-12-06T04:24:43.693Z,7.00
2022-12-06T04:25:45.362Z,6.99
2022-12-06T04:26:47.127Z,6.95
2022-12-06T04:28:06.946Z,6.92
2022-12-06T04:29:26.781Z,6.76
2022-12-06T04:30:46.836Z,6.67
2022-12-06T04:32:06.692Z,6.61
2022-12-06T04:33:26.523Z,6.56
2022-12-06T04:34:46.906Z,6.54
2022-12-06T04:36:06.925Z,6.42
2022-12-06T04:37:27.667Z,6.41
2022-12-06T04:38:44.752Z,6.35
2022-12-06T04:39:46.945Z,6.37
2022-12-06T04:40:48.517Z,6.38
2022-12-06T04:42:08.968Z,6.40
2022-12-06T04:43:29.315Z,6.42
2022-12-06T04:44:30.890Z,6.47
2022-12-06T04:45:32.463Z,6.49
2022-12-06T04:46:34.611Z,6.50
2022-12-06T04:47:36.338Z,6.46
2022-12-06T04:48:38.559Z,6.46
2022-12-06T04:49:40.101Z,6.41
2022-12-06T04:50:48.026Z,6.42
2022-12-06T04:51:49.593Z,6.45
2022-12-06T04:52:51.657Z,6.55
2022-12-06T04:53:53.239Z,6.62
2022-12-06T04:54:54.785Z,6.56
2022-12-06T04:55:56.502Z,6.52
2022-12-06T04:56:58.876Z,6.53
2022-12-06T04:58:00.388Z,6.52
2022-12-06T04:59:03.449Z,6.55
2022-12-06T05:00:07.578Z,6.61
2022-12-06T05:01:09.753Z,6.71
2022-12-06T05:02:14.144Z,6.78
2022-12-06T05:03:15.695Z,6.88
2022-12-06T05:04:17.386Z,6.94
2022-12-06T05:05:19.003Z,7.02
2022-12-06T05:06:20.930Z,7.12
2022-12-06T05:07:22.513Z,7.17
2022-12-06T05:08:24.211Z,7.25
2022-12-06T05:09:25.843Z,7.31
2022-12-06T05:10:27.489Z,7.41
2022-12-06T05:11:29.050Z,7.46
2022-12-06T05:12:30.576Z,7.48
2022-12-06T05:13:32.179Z,7.51
2022-12-06T05:14:33.906Z,7.55
2022-12-06T05:15:35.485Z,7.68
2022-12-06T05:16:37.211Z,8.13
2022-12-06T05:17:38.828Z,8.39
2022-12-06T05:18:40.601Z,8.38
2022-12-06T05:19:42.124Z,8.37
2022-12-06T05:20:43.686Z,8.34
2022-12-06T05:21:45.218Z,8.31
2022-12-06T05:22:46.877Z,8.28
2022-12-06T05:23:49.192Z,8.28
2022-12-06T05:24:51.765Z,8.29
2022-12-06T05:25:58.766Z,8.30
2022-12-06T05:27:00.280Z,8.30
2022-12-06T05:28:01.842Z,8.29
2022-12-06T05:29:03.926Z,8.29
2022-12-06T05:30:06.555Z,8.26
2022-12-06T05:31:08.310Z,8.23
2022-12-06T05:32:09.827Z,8.21
2022-12-06T05:33:11.353Z,8.20
2022-12-06T05:34:12.906Z,8.20
2022-12-06T05:35:14.496Z,8.19
2022-12-06T05:36:21.755Z,8.18
2022-12-06T05:37:24.083Z,8.11
2022-12-06T05:38:26.020Z,8.05
2022-12-06T05:39:27.677Z,7.97
2022-12-06T05:40:29.296Z,7.93
2022-12-06T05:41:30.884Z,7.95
2022-12-06T05:42:32.424Z,7.97
2022-12-06T05:43:34.536Z,7.97
2022-12-06T05:44:36.134Z,7.97
2022-12-06T05:45:38.804Z,8.00
2022-12-06T05:46:40.486Z,8.08
2022-12-06T05:47:42.135Z,8.07
2022-12-06T05:48:44.238Z,8.11
2022-12-06T05:49:45.750Z,8.17
2022-12-06T05:50:48.210Z,8.12
2022-12-06T05:51:49.738Z,8.13
2022-12-06T05:52:55.752Z,7.98
2022-12-06T05:53:57.361Z,7.88
2022-12-06T05:54:59.050Z,7.76
2022-12-06T05:56:09.286Z,7.68
2022-12-06T05:57:11.221Z,7.59
2022-12-06T05:58:13.135Z,7.61
2022-12-06T05:59:14.694Z,7.62
2022-12-06T06:00:17.593Z,7.63
2022-12-06T06:01:19.148Z,7.54
2022-12-06T06:02:20.818Z,7.46
2022-12-06T06:03:22.459Z,7.35
2022-12-06T06:04:23.998Z,7.24
2022-12-06T06:05:25.597Z,7.17
2022-12-06T06:06:27.403Z,7.10
2022-12-06T06:07:29.609Z,7.07
2022-12-06T06:08:31.500Z,7.05
2022-12-06T06:09:33.066Z,7.00
2022-12-06T06:10:34.641Z,7.00
2022-12-06T06:11:36.133Z,6.95
2022-12-06T06:12:37.858Z,6.94
2022-12-06T06:13:39.386Z,6.94
2022-12-06T06:14:40.919Z,6.94
2022-12-06T06:15:42.560Z,6.90
2022-12-06T06:16:44.184Z,6.90
2022-12-06T06:17:45.754Z,6.90
2022-12-06T06:18:47.827Z,6.89
2022-12-06T06:19:51.555Z,6.71
2022-12-06T06:20:58.239Z,6.60
2022-12-06T06:21:59.761Z,6.57
2022-12-06T06:23:01.509Z,6.48
2022-12-06T06:24:03.207Z,6.39
2022-12-06T06:25:06.178Z,6.37
2022-12-06T06:26:12.567Z,6.39
2022-12-06T06:27:14.687Z,6.39
2022-12-06T06:28:17.101Z,6.37
2022-12-06T06:29:18.632Z,6.35
2022-12-06T06:30:20.229Z,6.34
2022-12-06T06:31:22.282Z,6.34
2022-12-06T06:32:23.898Z,6.43
2022-12-06T06:33:25.409Z,6.47
2022-12-06T06:34:27.010Z,6.48
2022-12-06T06:35:29.530Z,6.50
2022-12-06T06:36:31.080Z,6.52
2022-12-06T06:37:33.067Z,6.64
2022-12-06T06:38:34.653Z,6.73
2022-12-06T06:39:36.428Z,6.80
2022-12-06T06:40:38.465Z,6.88
2022-12-06T06:41:40.697Z,6.91
2022-12-06T06:42:43.156Z,6.94
2022-12-06T06:43:46.148Z,7.00
2022-12-06T06:44:47.801Z,7.08
2022-12-06T06:45:52.456Z,7.20
2022-12-06T06:46:54.087Z,7.26
2022-12-06T06:47:55.602Z,7.36
2022-12-06T06:48:57.312Z,7.45
2022-12-06T06:49:59.256Z,7.52
2022-12-06T06:51:06.346Z,7.59
2022-12-06T06:52:07.969Z,7.67
2022-12-06T06:53:09.559Z,7.74
2022-12-06T06:54:12.601Z,7.81
2022-12-06T06:55:14.237Z,7.85
2022-12-06T06:56:15.863Z,7.91
2022-12-06T06:57:18.477Z,7.98
2022-12-06T06:58:20.029Z,7.97
2022-12-06T06:59:22.376Z,7.99
2022-12-06T07:00:24.333Z,8.03
2022-12-06T07:01:27.400Z,8.06
2022-12-06T07:02:29.081Z,8.11
2022-12-06T07:03:30.731Z,8.12
2022-12-06T07:04:32.338Z,7.99
2022-12-06T07:05:33.865Z,7.93
2022-12-06T07:06:35.379Z,8.02
2022-12-06T07:07:37.463Z,8.13
2022-12-06T07:08:41.551Z,8.18
2022-12-06T07:09:43.227Z,8.30
2022-12-06T07:10:48.671Z,8.40
2022-12-06T07:11:50.233Z,8.45
2022-12-06T07:12:52.074Z,8.50
2022-12-06T07:13:53.564Z,8.53
2022-12-06T07:14:55.377Z,8.55
2022-12-06T07:15:58.348Z,8.54
2022-12-06T07:17:00.008Z,8.49
2022-12-06T07:18:01.641Z,8.50
2022-12-06T07:19:08.852Z,8.54
2022-12-06T07:20:10.999Z,8.45
2022-12-06T07:21:14.782Z,8.35
2022-12-06T07:22:16.417Z,8.45
2022-12-06T07:23:17.957Z,8.57
2022-12-06T07:24:19.551Z,8.65
2022-12-06T07:25:21.061Z,8.73
2022-12-06T07:26:23.859Z,8.78
2022-12-06T07:27:25.481Z,8.79
2022-12-06T07:28:27.093Z,8.81
2022-12-06T07:29:28.624Z,8.83
2022-12-06T07:30:30.428Z,8.90
2022-12-06T07:31:33.796Z,8.94
2022-12-06T07:32:37.000Z,9.01
2022-12-06T07:33:39.429Z,9.03
2022-12-06T07:34:40.953Z,9.09
2022-12-06T07:36:10.797Z,9.12
2022-12-06T07:37:06.505Z,8.95
2022-12-06T07:38:08.019Z,8.76
2022-12-06T07:39:14.555Z,8.63
2022-12-06T07:40:19.201Z,8.39
2022-12-06T07:41:43.738Z,8.37
2022-12-06T07:43:03.701Z,8.52
2022-12-06T07:44:24.102Z,8.74
2022-12-06T07:45:25.802Z,8.83
2022-12-06T07:46:27.457Z,8.90
2022-12-06T07:47:37.291Z,9.08
2022-12-06T07:48:39.177Z,9.13
2022-12-06T07:49:40.753Z,9.07
2022-12-06T07:50:42.260Z,9.06
2022-12-06T07:51:47.775Z,9.15
2022-12-06T07:52:50.933Z,9.18
2022-12-06T07:53:52.487Z,9.24
2022-12-06T07:54:54.058Z,9.17
2022-12-06T07:55:55.621Z,9.22
2022-12-06T07:56:57.305Z,9.31
2022-12-06T07:57:58.866Z,9.36
2022-12-06T07:59:01.634Z,9.27
2022-12-06T08:00:05.248Z,9.30
2022-12-06T08:01:06.844Z,9.16
2022-12-06T08:02:17.604Z,8.99
2022-12-06T08:03:19.149Z,8.98
2022-12-06T08:04:20.771Z,9.07
2022-12-06T08:05:22.372Z,8.97
2022-12-06T08:06:23.924Z,9.08
2022-12-06T08:07:26.558Z,9.20
2022-12-06T08:08:29.064Z,9.23
2022-12-06T08:09:31.012Z,9.37
2022-12-06T08:10:32.759Z,9.54
2022-12-06T08:11:34.974Z,9.56
2022-12-06T08:12:36.535Z,9.67
2022-12-06T08:13:38.521Z,9.58
2022-12-06T08:14:40.139Z,9.49
2022-12-06T08:15:41.769Z,9.54
2022-12-06T08:16:43.299Z,9.53
2022-12-06T08:17:45.382Z,9.62
2022-12-06T08:18:47.102Z,9.60
2022-12-06T08:19:48.881Z,9.64
2022-12-06T08:20:51.113Z,9.84
2022-12-06T08:21:52.718Z,10.02
2022-12-06T08:22:54.270Z,10.17
2022-12-06T08:23:55.851Z,9.99
2022-12-06T08:24:57.376Z,9.76
2022-12-06T08:26:03.459Z,9.87
2022-12-06T08:27:05.019Z,9.94
2022-12-06T08:28:06.632Z,9.97
2022-12-06T08:29:08.255Z,9.95
2022-12-06T08:30:09.938Z,10.04
2022-12-06T08:31:18.350Z,10.21
2022-12-06T08:32:20.025Z,10.19
2022-12-06T08:33:24.643Z,10.11
2022-12-06T08:34:26.206Z,10.17
2022-12-06T08:35:27.944Z,10.31
2022-12-06T08:36:29.639Z,10.21
2022-12-06T08:37:31.146Z,10.24
2022-12-06T08:38:32.654Z,10.29
2022-12-06T08:39:34.207Z,10.07
2022-12-06T08:40:35.814Z,9.90
2022-12-06T08:41:55.431Z,10.04
2022-12-06T08:42:56.989Z,10.24
2022-12-06T08:44:00.851Z,10.35
2022-12-06T08:45:02.427Z,10.37
2022-12-06T08:46:04.027Z,10.22
2022-12-06T08:47:05.781Z,10.09
2022-12-06T08:48:07.421Z,10.09
2022-12-06T08:49:09.804Z,10.21
2022-12-06T08:50:11.662Z,10.22
2022-12-06T08:51:13.219Z,10.30
2022-12-06T08:52:14.794Z,10.49
2022-12-06T08:53:16.360Z,10.60
2022-12-06T08:54:21.761Z,10.76
2022-12-06T08:55:23.305Z,10.86
2022-12-06T08:56:25.395Z,10.95
2022-12-06T08:57:27.005Z,11.02
2022-12-06T08:58:28.549Z,11.09
2022-12-06T08:59:30.317Z,11.16
2022-12-06T09:00:31.875Z,11.22
2022-12-06T09:01:37.739Z,11.12
2022-12-06T09:02:40.411Z,11.11
2022-12-06T09:03:42.057Z,11.02
2022-12-06T09:04:43.654Z,11.08
2022-12-06T09:05:45.218Z,11.19
2022-12-06T09:06:46.915Z,11.27
2022-12-06T09:07:48.507Z,11.24
2022-12-06T09:08:50.224Z,11.23
2022-12-06T09:09:54.679Z,11.23
2022-12-06T09:10:56.242Z,11.29
2022-12-06T09:11:57.849Z,11.27
2022-12-06T09:12:59.415Z,11.29
2022-12-06T09:14:01.034Z,11.32
2022-12-06T09:15:02.603Z,11.34
2022-12-06T09:16:12.185Z,11.38
2022-12-06T09:17:13.832Z,11.35
2022-12-06T09:18:15.434Z,11.44
2022-12-06T09:19:17.627Z,11.35
2022-12-06T09:20:19.847Z,11.41
2022-12-06T09:21:24.418Z,11.51
2022-12-06T09:22:25.934Z,11.48
2022-12-06T09:23:27.564Z,11.39
2022-12-06T09:24:29.062Z,11.36
2022-12-06T09:25:30.613Z,11.17
2022-12-06T09:26:32.652Z,11.08
2022-12-06T09:27:34.161Z,11.23
2022-12-06T09:28:37.950Z,11.32
2022-12-06T09:29:40.943Z,11.34
2022-12-06T09:30:42.682Z,11.37
2022-12-06T09:31:44.316Z,11.41
2022-12-06T09:32:45.994Z,11.45
2022-12-06T09:33:47.915Z,11.50
2022-12-06T09:34:49.481Z,11.55
2022-12-06T09:35:51.986Z,11.51
2022-12-06T09:37:02.251Z,11.42
2022-12-06T09:38:05.018Z,11.49
2022-12-06T09:39:14.305Z,11.53
2022-12-06T09:40:24.554Z,11.43
2022-12-06T09:41:56.587Z,11.32
2022-12-06T09:43:19.084Z,11.26
2022-12-06T09:44:38.774Z,11.19
2022-12-06T09:45:47.017Z,11.20
2022-12-06T09:47:08.267Z,11.29
2022-12-06T09:48:28.332Z,11.26
2022-12-06T09:49:31.821Z,11.41
2022-12-06T09:50:36.406Z,11.51
2022-12-06T09:52:01.855Z,11.55
2022-12-06T09:53:21.690Z,11.41
2022-12-06T09:54:57.260Z,11.23
2022-12-06T09:56:47.614Z,11.41
2022-12-06T09:57:54.841Z,11.58
2022-12-06T09:59:17.750Z,11.65
2022-12-06T10:00:23.271Z,11.77
2022-12-06T10:01:37.214Z,11.75
2022-12-06T10:02:44.629Z,11.57
2022-12-06T10:04:12.379Z,11.44
2022-12-06T10:05:34.995Z,11.34
2022-12-06T10:06:48.735Z,11.34
2022-12-06T10:07:53.181Z,11.46
2022-12-06T10:09:03.630Z,11.49
2022-12-06T10:10:33.470Z,11.48
2022-12-06T10:11:56.370Z,11.46
2022-12-06T10:13:07.452Z,11.53
2022-12-06T10:14:41.856Z,11.32
2022-12-06T10:16:26.529Z,11.22
2022-12-06T10:17:54.739Z,11.39
2022-12-06T10:19:02.275Z,11.42
2022-12-06T10:20:22.560Z,11.38
2022-12-06T10:21:50.486Z,11.49
2022-12-06T10:23:10.615Z,11.57
2022-12-06T10:24:12.100Z,11.55
2022-12-06T10:25:17.657Z,11.54
2022-12-06T10:26:38.277Z,11.58
2022-12-06T10:27:58.288Z,11.53
2022-12-06T10:29:17.670Z,11.44
2022-12-06T10:30:19.601Z,11.26
2022-12-06T10:31:54.593Z,11.23
2022-12-06T10:33:07.197Z,11.19
2022-12-06T10:34:21.635Z,11.13
2022-12-06T10:35:44.676Z,11.12
2022-12-06T10:37:00.962Z,11.19
2022-12-06T10:38:08.910Z,11.34
2022-12-06T10:39:20.026Z,11.34
2022-12-06T10:40:42.903Z,11.20
2022-12-06T10:41:50.593Z,11.04
2022-12-06T10:43:15.037Z,11.08
2022-12-06T10:44:32.367Z,11.27
2022-12-06T10:46:10.392Z,11.30
2022-12-06T10:47:16.697Z,11.45
2022-12-06T10:48:29.546Z,11.51
2022-12-06T10:49:59.147Z,11.51
2022-12-06T10:51:25.897Z,11.42
2022-12-06T10:52:41.466Z,11.58
2022-12-06T10:53:49.041Z,11.45
2022-12-06T10:55:10.170Z,11.25
2022-12-06T10:56:27.026Z,11.16
2022-12-06T10:57:41.254Z,11.18
2022-12-06T10:58:51.485Z,11.20
2022-12-06T11:00:03.948Z,11.35
2022-12-06T11:01:28.531Z,11.47
2022-12-06T11:02:57.930Z,11.57
2022-12-06T11:04:07.472Z,11.52
2022-12-06T11:05:24.595Z,11.57
2022-12-06T11:06:33.691Z,11.61
2022-12-06T11:07:41.976Z,11.63
2022-12-06T11:08:54.527Z,11.68
2022-12-06T11:09:57.404Z,11.73
2022-12-06T11:11:00.800Z,11.75
2022-12-06T11:12:16.558Z,11.79
2022-12-06T11:13:35.552Z,11.81
2022-12-06T11:14:43.301Z,11.75
2022-12-06T11:15:58.930Z,11.84
2022-12-06T11:17:24.551Z,11.81
2022-12-06T11:18:29.435Z,11.71
2022-12-06T11:19:43.418Z,11.77
2022-12-06T11:20:51.576Z,11.83
2022-12-06T11:22:00.323Z,11.81
2022-12-06T11:23:13.823Z,11.72
2022-12-06T11:24:41.824Z,11.61
2022-12-06T11:26:04.781Z,11.62
2022-12-06T11:27:31.976Z,11.59
2022-12-06T11:28:42.204Z,11.48
2022-12-06T11:29:47.498Z,11.39
2022-12-06T11:30:52.808Z,11.25
2022-12-06T11:31:59.462Z,11.25
2022-12-06T11:33:02.177Z,11.26
2022-12-06T11:34:09.302Z,11.34
2022-12-06T11:35:28.963Z,11.25
2022-12-06T11:36:31.274Z,11.15
2022-12-06T11:37:34.235Z,11.22
2022-12-06T11:38:39.718Z,11.32
2022-12-06T11:39:41.286Z,11.36
2022-12-06T11:40:46.647Z,11.35
2022-12-06T11:41:54.426Z,11.39
2022-12-06T11:42:58.924Z,11.43
2022-12-06T11:44:00.756Z,11.44
2022-12-06T11:45:15.623Z,11.45
2022-12-06T11:46:17.411Z,11.35
2022-12-06T11:47:22.189Z,11.24
2022-12-06T11:48:26.658Z,11.27
2022-12-06T11:49:34.336Z,11.28
2022-12-06T11:50:36.695Z,11.16
2022-12-06T11:51:38.195Z,11.03
2022-12-06T11:52:48.587Z,11.15
2022-12-06T11:54:11.711Z,11.17
2022-12-06T11:55:24.137Z,11.04
2022-12-06T11:56:29.209Z,11.07
2022-12-06T11:57:37.193Z,11.02
2022-12-06T11:58:45.546Z,11.11
2022-12-06T12:00:20.605Z,11.08
2022-12-06T12:01:57.004Z,11.14
2022-12-06T12:02:58.777Z,11.09
2022-12-06T12:04:30.341Z,11.10
2022-12-06T12:05:38.833Z,11.04
2022-12-06T12:06:40.434Z,10.96
2022-12-06T12:07:44.132Z,10.97
2022-12-06T12:08:56.683Z,11.01
2022-12-06T12:10:04.368Z,11.09
2022-12-06T12:11:06.781Z,11.13
2022-12-06T12:12:16.506Z,11.20
2022-12-06T12:13:39.934Z,11.24
2022-12-06T12:14:47.937Z,11.28
2022-12-06T12:15:53.188Z,11.25
2022-12-06T12:17:00.031Z,11.30
2022-12-06T12:18:03.465Z,11.15
2022-12-06T12:19:24.454Z,11.03
2022-12-06T12:20:32.220Z,10.97
2022-12-06T12:21:38.415Z,10.95
2022-12-06T12:22:45.562Z,10.91
2022-12-06T12:23:47.669Z,10.88
2022-12-06T12:25:18.051Z,10.86
2022-12-06T12:26:21.973Z,10.93
2022-12-06T12:27:32.480Z,11.00
2022-12-06T12:28:35.611Z,11.00
2022-12-06T12:29:37.255Z,11.00
2022-12-06T12:30:52.802Z,10.99
2022-12-06T12:31:58.872Z,10.99
2022-12-06T12:33:06.489Z,11.06
2022-12-06T12:34:25.959Z,11.04
2022-12-06T12:35:30.927Z,11.05
2022-12-06T12:36:32.644Z,11.06
2022-12-06T12:37:37.513Z,11.05
2022-12-06T12:38:52.258Z,11.14
2022-12-06T12:39:54.437Z,11.16
2022-12-06T12:41:01.856Z,11.11
2022-12-06T12:42:04.431Z,11.07
2022-12-06T12:43:16.409Z,11.11
2022-12-06T12:44:39.258Z,11.13
2022-12-06T12:46:10.152Z,11.12
2022-12-06T12:47:14.526Z,11.07
2022-12-06T12:48:24.899Z,10.98
2022-12-06T12:49:38.536Z,10.98
2022-12-06T12:50:52.872Z,11.01
2022-12-06T12:51:55.098Z,11.09
2022-12-06T12:52:57.041Z,11.06
2022-12-06T12:54:04.797Z,11.05
2022-12-06T12:55:15.587Z,11.17
2022-12-06T12:56:20.115Z,11.21
2022-12-06T12:57:21.726Z,11.18
2022-12-06T12:58:23.238Z,11.12
2022-12-06T12:59:27.474Z,11.03
2022-12-06T13:00:35.227Z,10.99
2022-12-06T13:01:52.073Z,10.94
2022-12-06T13:03:48.899Z,11.04
2022-12-06T13:05:32.663Z,11.10
2022-12-06T13:06:32.688Z,11.22
2022-12-06T13:07:36.509Z,11.29
2022-12-06T13:08:39.219Z,11.34
2022-12-06T13:10:16.074Z,11.38
2022-12-06T13:11:17.627Z,11.34
2022-12-06T13:12:26.426Z,11.41
2022-12-06T13:13:43.308Z,11.35
2022-12-06T13:14:52.687Z,11.39
2022-12-06T13:15:56.839Z,11.42
2022-12-06T13:17:03.250Z,11.44
2022-12-06T13:18:12.830Z,11.53
2022-12-06T13:19:18.848Z,11.46
2022-12-06T13:20:33.754Z,11.48
2022-12-06T13:21:40.104Z,11.55
2022-12-06T13:22:45.377Z,11.57
2022-12-06T13:23:52.585Z,11.50
2022-12-06T13:25:06.487Z,11.52
2022-12-06T13:26:20.293Z,11.48
2022-12-06T13:27:23.879Z,11.40
2022-12-06T13:28:33.758Z,11.36
2022-12-06T13:29:37.990Z,11.25
2022-12-06T13:30:41.875Z,11.21
2022-12-06T13:31:44.236Z,11.18
2022-12-06T13:32:51.967Z,11.21
2022-12-06T13:34:22.480Z,11.25
2022-12-06T13:35:28.332Z,11.28
2022-12-06T13:36:34.654Z,11.24
2022-12-06T13:37:45.561Z,11.28
2022-12-06T13:38:47.497Z,11.28
2022-12-06T13:39:49.951Z,11.30
2022-12-06T13:40:54.027Z,11.24
2022-12-06T13:42:18.873Z,11.21
2022-12-06T13:43:23.323Z,11.18
2022-12-06T13:44:54.362Z,11.15
2022-12-06T13:46:26.371Z,11.18
2022-12-06T13:47:27.964Z,11.13
2022-12-06T13:48:47.821Z,11.07
2022-12-06T13:49:49.343Z,11.09
2022-12-06T13:50:56.954Z,11.12
2022-12-06T13:51:58.778Z,11.06
2022-12-06T13:53:02.230Z,11.08
2022-12-06T13:54:03.772Z,11.04
2022-12-06T13:55:24.146Z,10.97
2022-12-06T13:56:43.848Z,10.91
2022-12-06T13:57:45.404Z,10.88
2022-12-06T13:58:53.526Z,10.89
2022-12-06T13:59:55.291Z,10.86
2022-12-06T14:00:57.490Z,10.85
2022-12-06T14:02:00.954Z,10.86
2022-12-06T14:03:18.175Z,10.82
2022-12-06T14:08:13.161Z,10.77
2022-12-06T14:09:14.952Z,10.72
2022-12-06T14:10:16.523Z,10.69
2022-12-06T14:11:23.799Z,10.73
2022-12-06T14:12:27.803Z,10.69
2022-12-06T14:13:29.408Z,10.67
2022-12-06T14:14:30.933Z,10.70
2022-12-06T14:15:32.615Z,10.67
2022-12-06T14:16:34.220Z,10.66
2022-12-06T14:18:01.465Z,10.63
2022-12-06T14:19:11.638Z,10.64
2022-12-06T14:20:21.875Z,10.64
2022-12-06T14:21:43.669Z,10.71
2022-12-06T14:22:47.534Z,10.72
2022-12-06T14:23:49.189Z,10.66
2022-12-06T14:25:07.424Z,10.77
2022-12-06T14:26:19.303Z,10.80
2022-12-06T14:27:23.169Z,10.76
2022-12-06T14:28:24.735Z,10.81
2022-12-06T14:29:26.317Z,10.79
2022-12-06T14:30:28.007Z,10.74
2022-12-06T14:31:39.094Z,10.74
2022-12-06T14:32:43.673Z,10.77
2022-12-06T14:33:45.282Z,10.79
2022-12-06T14:34:48.523Z,10.76
2022-12-06T14:35:53.758Z,10.75
2022-12-06T14:36:57.322Z,10.73
2022-12-06T14:38:06.315Z,10.77
2022-12-06T14:39:23.481Z,10.66
2022-12-06T14:42:20.378Z,10.62
2022-12-06T14:43:24.416Z,10.59